UGD111 EDDH-HECA
Flight info
| Callsign | UGD111 |
|---|---|
| Flight time | 2h 58m |
| Altitude | 33000 |
| Route | RAMAR6C/05 RAMAR Z998 RATMO DCT GODUR DCT HDO DCT PEPIK DCT KEROP DCT NISVA DCT NIKTI DCT MES UN139 KUMBI L612 BLT A16 CVO |
| Aircraft | B738/M-SDGIJ1LRWY/SB1 |
Departure
| Time | 2026-02-19 12:16 |
|---|---|
| Airport | Hamburg Helmut Schmidt Airport (EDDH) |
Arrival
| Time | 2026-02-19 15:15 |
|---|---|
| Airport | Cairo International Airport (HECA) |
| Time | Latitude | Longitude | Altitude | Speed | Heading |
|---|---|---|---|---|---|
| 2026-02-19 11:53 | 53.62926 | 10.00289 | 40 ft | 0 kts | 108° |
| 2026-02-19 12:05 | 53.62930 | 10.00270 | 40 ft | 2 kts | 108° |
| 2026-02-19 12:05 | 53.62935 | 10.00246 | 39 ft | 2 kts | 108° |
| 2026-02-19 12:06 | 53.62940 | 10.00222 | 39 ft | 2 kts | 108° |
| 2026-02-19 12:06 | 53.62946 | 10.00199 | 39 ft | 2 kts | 134° |
| 2026-02-19 12:06 | 53.62958 | 10.00184 | 38 ft | 2 kts | 153° |
| 2026-02-19 12:06 | 53.62972 | 10.00176 | 38 ft | 2 kts | 175° |
| 2026-02-19 12:07 | 53.62987 | 10.00178 | 38 ft | 2 kts | 196° |
| 2026-02-19 12:07 | 53.62996 | 10.00184 | 38 ft | 0 kts | 211° |
| 2026-02-19 12:07 | 53.63003 | 10.00191 | 38 ft | 0 kts | 213° |
| 2026-02-19 12:10 | 53.63001 | 10.00189 | 38 ft | 1 kts | 213° |
| 2026-02-19 12:10 | 53.62974 | 10.00160 | 38 ft | 5 kts | 213° |
| 2026-02-19 12:10 | 53.62939 | 10.00122 | 37 ft | 6 kts | 212° |
| 2026-02-19 12:11 | 53.62900 | 10.00081 | 36 ft | 7 kts | 212° |
| 2026-02-19 12:11 | 53.62860 | 10.00031 | 35 ft | 7 kts | 219° |
| 2026-02-19 12:11 | 53.62817 | 9.99973 | 35 ft | 7 kts | 216° |
| 2026-02-19 12:11 | 53.62777 | 9.99934 | 35 ft | 5 kts | 206° |
| 2026-02-19 12:12 | 53.62733 | 9.99897 | 36 ft | 13 kts | 207° |
| 2026-02-19 12:12 | 53.62621 | 9.99612 | 40 ft | 14 kts | 259° |
| 2026-02-19 12:12 | 53.62603 | 9.99447 | 40 ft | 13 kts | 259° |
| 2026-02-19 12:13 | 53.62585 | 9.99298 | 42 ft | 12 kts | 258° |
| 2026-02-19 12:13 | 53.62571 | 9.99181 | 45 ft | 8 kts | 259° |
| 2026-02-19 12:13 | 53.62556 | 9.99041 | 44 ft | 17 kts | 259° |
| 2026-02-19 12:13 | 53.62531 | 9.98819 | 43 ft | 19 kts | 259° |
| 2026-02-19 12:14 | 53.62505 | 9.98591 | 40 ft | 20 kts | 259° |
| 2026-02-19 12:14 | 53.62477 | 9.98348 | 38 ft | 20 kts | 259° |
| 2026-02-19 12:14 | 53.62433 | 9.98114 | 36 ft | 21 kts | 240° |
| 2026-02-19 12:14 | 53.62339 | 9.97910 | 32 ft | 22 kts | 230° |
| 2026-02-19 12:15 | 53.62247 | 9.97722 | 31 ft | 19 kts | 230° |
| 2026-02-19 12:15 | 53.62182 | 9.97557 | 28 ft | 15 kts | 256° |
| 2026-02-19 12:15 | 53.62219 | 9.97394 | 27 ft | 15 kts | 322° |
| 2026-02-19 12:15 | 53.62314 | 9.97383 | 27 ft | 16 kts | 31° |
| 2026-02-19 12:16 | 53.62564 | 9.97872 | 28 ft | 103 kts | 51° |
| 2026-02-19 12:16 | 53.63962 | 10.00639 | 1526 ft | 163 kts | 56° |
| 2026-02-19 12:16 | 53.64559 | 10.01751 | 2873 ft | 122 kts | 59° |
| 2026-02-19 12:17 | 53.65086 | 10.02986 | 3254 ft | 139 kts | 61° |
| 2026-02-19 12:17 | 53.65636 | 10.04210 | 4031 ft | 132 kts | 58° |
| 2026-02-19 12:17 | 53.66227 | 10.05472 | 4500 ft | 146 kts | 57° |
| 2026-02-19 12:17 | 53.66872 | 10.06828 | 5102 ft | 153 kts | 57° |
| 2026-02-19 12:18 | 53.67548 | 10.08245 | 5705 ft | 161 kts | 56° |
| 2026-02-19 12:18 | 53.68263 | 10.09745 | 6255 ft | 173 kts | 55° |
| 2026-02-19 12:18 | 53.69028 | 10.11350 | 6842 ft | 184 kts | 54° |
| 2026-02-19 12:18 | 53.69845 | 10.13072 | 7388 ft | 197 kts | 54° |
| 2026-02-19 12:19 | 53.70711 | 10.14900 | 8050 ft | 205 kts | 54° |
| 2026-02-19 12:19 | 53.71457 | 10.16906 | 8744 ft | 210 kts | 68° |
| 2026-02-19 12:19 | 53.71881 | 10.19268 | 9432 ft | 215 kts | 76° |
| 2026-02-19 12:19 | 53.72234 | 10.21734 | 10098 ft | 221 kts | 75° |
| 2026-02-19 12:20 | 53.72623 | 10.24253 | 10826 ft | 225 kts | 74° |
| 2026-02-19 12:20 | 53.73469 | 10.29371 | 12238 ft | 232 kts | 72° |
| 2026-02-19 12:20 | 53.73911 | 10.32012 | 12924 ft | 235 kts | 73° |
| 2026-02-19 12:21 | 53.74356 | 10.34683 | 13593 ft | 239 kts | 73° |
| 2026-02-19 12:21 | 53.74796 | 10.37334 | 14223 ft | 243 kts | 72° |
| 2026-02-19 12:21 | 53.75256 | 10.40107 | 14856 ft | 248 kts | 72° |
| 2026-02-19 12:21 | 53.75720 | 10.42913 | 15460 ft | 252 kts | 71° |
| 2026-02-19 12:22 | 53.76195 | 10.45802 | 16042 ft | 257 kts | 71° |
| 2026-02-19 12:22 | 53.76677 | 10.48722 | 16579 ft | 262 kts | 71° |
| 2026-02-19 12:22 | 53.77163 | 10.51666 | 17139 ft | 266 kts | 71° |
| 2026-02-19 12:22 | 53.77667 | 10.54724 | 17701 ft | 270 kts | 71° |
| 2026-02-19 12:23 | 53.78170 | 10.57790 | 18198 ft | 275 kts | 71° |
| 2026-02-19 12:23 | 53.78684 | 10.60926 | 18665 ft | 281 kts | 71° |
| 2026-02-19 12:23 | 53.79205 | 10.64121 | 19222 ft | 284 kts | 71° |
| 2026-02-19 12:23 | 53.79586 | 10.67377 | 19727 ft | 291 kts | 83° |
| 2026-02-19 12:24 | 53.79528 | 10.70788 | 20251 ft | 296 kts | 97° |
| 2026-02-19 12:24 | 53.77935 | 10.77302 | 21119 ft | 310 kts | 125° |
| 2026-02-19 12:24 | 53.76672 | 10.80221 | 21467 ft | 318 kts | 127° |
| 2026-02-19 12:25 | 53.75328 | 10.83276 | 21872 ft | 325 kts | 126° |
| 2026-02-19 12:25 | 53.74014 | 10.86407 | 22290 ft | 330 kts | 125° |
| 2026-02-19 12:25 | 53.72745 | 10.89576 | 22801 ft | 331 kts | 124° |
| 2026-02-19 12:25 | 53.71359 | 10.92667 | 23271 ft | 332 kts | 135° |
| 2026-02-19 12:26 | 53.69662 | 10.95252 | 23723 ft | 333 kts | 146° |
| 2026-02-19 12:26 | 53.67754 | 10.97448 | 23944 ft | 340 kts | 150° |
| 2026-02-19 12:26 | 53.65680 | 10.99581 | 23730 ft | 356 kts | 152° |
| 2026-02-19 12:26 | 53.63513 | 11.01729 | 23693 ft | 366 kts | 152° |
| 2026-02-19 12:27 | 53.61312 | 11.03907 | 23755 ft | 372 kts | 152° |
| 2026-02-19 12:27 | 53.59076 | 11.06133 | 23805 ft | 378 kts | 151° |
| 2026-02-19 12:27 | 53.56798 | 11.08417 | 23778 ft | 387 kts | 151° |
| 2026-02-19 12:27 | 53.54489 | 11.10743 | 23971 ft | 392 kts | 151° |
| 2026-02-19 12:28 | 53.52167 | 11.13092 | 24569 ft | 391 kts | 151° |
| 2026-02-19 12:28 | 53.47524 | 11.17792 | 25567 ft | 395 kts | 151° |
| 2026-02-19 12:28 | 53.45194 | 11.20149 | 26227 ft | 393 kts | 151° |
| 2026-02-19 12:29 | 53.42858 | 11.22510 | 26838 ft | 391 kts | 151° |
| 2026-02-19 12:29 | 53.40650 | 11.24739 | 27334 ft | 392 kts | 152° |
| 2026-02-19 12:29 | 53.38366 | 11.27042 | 27865 ft | 391 kts | 151° |
| 2026-02-19 12:29 | 53.36047 | 11.29379 | 28449 ft | 389 kts | 151° |
| 2026-02-19 12:30 | 53.33726 | 11.31714 | 28934 ft | 390 kts | 152° |
| 2026-02-19 12:30 | 53.31393 | 11.34061 | 29394 ft | 391 kts | 152° |
| 2026-02-19 12:30 | 53.29088 | 11.36376 | 29854 ft | 391 kts | 151° |
| 2026-02-19 12:30 | 53.26806 | 11.38854 | 30268 ft | 393 kts | 146° |
| 2026-02-19 12:31 | 53.24650 | 11.41675 | 30609 ft | 398 kts | 141° |
| 2026-02-19 12:31 | 53.22590 | 11.44711 | 30990 ft | 399 kts | 139° |
| 2026-02-19 12:31 | 53.20569 | 11.47840 | 31410 ft | 399 kts | 138° |
| 2026-02-19 12:31 | 53.18556 | 11.51007 | 32017 ft | 394 kts | 138° |
| 2026-02-19 12:32 | 53.16611 | 11.54066 | 32675 ft | 386 kts | 138° |
| 2026-02-19 12:32 | 53.12701 | 11.60150 | 32964 ft | 395 kts | 139° |
| 2026-02-19 12:33 | 53.08632 | 11.66400 | 32960 ft | 410 kts | 140° |
| 2026-02-19 12:33 | 53.04406 | 11.72846 | 32964 ft | 423 kts | 140° |
| 2026-02-19 12:34 | 53.00023 | 11.79556 | 32968 ft | 438 kts | 137° |
| 2026-02-19 12:34 | 52.95966 | 11.87233 | 32954 ft | 454 kts | 130° |
| 2026-02-19 12:35 | 52.92086 | 11.95673 | 32958 ft | 469 kts | 128° |
| 2026-02-19 12:35 | 52.88187 | 12.04380 | 32950 ft | 482 kts | 128° |
| 2026-02-19 12:36 | 52.84183 | 12.13257 | 32951 ft | 489 kts | 128° |
| 2026-02-19 12:36 | 52.77956 | 12.25983 | 32965 ft | 484 kts | 139° |
| 2026-02-19 12:37 | 52.72773 | 12.32610 | 32955 ft | 480 kts | 147° |
| 2026-02-19 12:37 | 52.67312 | 12.38689 | 32962 ft | 479 kts | 148° |
| 2026-02-19 12:38 | 52.61817 | 12.44813 | 32949 ft | 477 kts | 148° |
| 2026-02-19 12:38 | 52.56375 | 12.51036 | 32953 ft | 483 kts | 147° |
| 2026-02-19 12:39 | 52.50975 | 12.57334 | 32952 ft | 478 kts | 146° |
| 2026-02-19 12:39 | 52.45732 | 12.63506 | 32960 ft | 480 kts | 146° |
| 2026-02-19 12:40 | 52.38440 | 12.72109 | 32954 ft | 477 kts | 147° |
| 2026-02-19 12:41 | 52.32978 | 12.78536 | 32948 ft | 479 kts | 147° |
| 2026-02-19 12:41 | 52.27619 | 12.84817 | 32939 ft | 475 kts | 147° |
| 2026-02-19 12:42 | 52.22243 | 12.91095 | 32956 ft | 478 kts | 147° |
| 2026-02-19 12:42 | 52.16855 | 12.97367 | 32954 ft | 481 kts | 147° |
| 2026-02-19 12:43 | 52.11440 | 13.03656 | 32933 ft | 474 kts | 147° |
| 2026-02-19 12:43 | 52.06086 | 13.09856 | 32931 ft | 477 kts | 147° |
| 2026-02-19 12:44 | 52.00743 | 13.16024 | 32942 ft | 473 kts | 147° |
| 2026-02-19 12:44 | 51.92716 | 13.25255 | 32923 ft | 472 kts | 147° |
| 2026-02-19 12:45 | 51.87395 | 13.31353 | 32941 ft | 475 kts | 147° |
| 2026-02-19 12:45 | 51.82029 | 13.37485 | 32942 ft | 474 kts | 147° |
| 2026-02-19 12:46 | 51.76677 | 13.43584 | 32936 ft | 474 kts | 147° |
| 2026-02-19 12:46 | 51.71293 | 13.49701 | 32923 ft | 474 kts | 147° |
| 2026-02-19 12:47 | 51.65936 | 13.55777 | 32927 ft | 474 kts | 147° |
| 2026-02-19 12:47 | 51.60611 | 13.61794 | 32908 ft | 473 kts | 147° |
| 2026-02-19 12:48 | 51.52552 | 13.70863 | 32914 ft | 474 kts | 148° |
| 2026-02-19 12:49 | 51.47218 | 13.76990 | 32897 ft | 473 kts | 146° |
| 2026-02-19 12:49 | 51.42152 | 13.83534 | 32891 ft | 475 kts | 143° |
| 2026-02-19 12:50 | 51.37118 | 13.90301 | 32900 ft | 475 kts | 143° |
| 2026-02-19 12:50 | 51.32091 | 13.97044 | 32889 ft | 474 kts | 143° |
| 2026-02-19 12:51 | 51.27040 | 14.03739 | 32878 ft | 474 kts | 143° |
| 2026-02-19 12:51 | 51.22025 | 14.10324 | 32880 ft | 471 kts | 143° |
| 2026-02-19 12:52 | 51.16977 | 14.16910 | 32880 ft | 475 kts | 143° |
| 2026-02-19 12:52 | 51.09373 | 14.26783 | 32876 ft | 475 kts | 143° |
| 2026-02-19 12:53 | 51.04299 | 14.33351 | 32866 ft | 474 kts | 143° |
| 2026-02-19 12:53 | 50.99209 | 14.39921 | 32856 ft | 472 kts | 143° |
| 2026-02-19 12:54 | 50.94172 | 14.46398 | 32852 ft | 475 kts | 144° |
| 2026-02-19 12:54 | 50.89077 | 14.52928 | 32861 ft | 473 kts | 143° |
| 2026-02-19 12:55 | 50.83984 | 14.59440 | 32852 ft | 476 kts | 143° |
| 2026-02-19 12:55 | 50.78880 | 14.65952 | 32854 ft | 477 kts | 144° |
| 2026-02-19 12:56 | 50.71197 | 14.75716 | 32869 ft | 476 kts | 144° |
| 2026-02-19 12:57 | 50.66065 | 14.82215 | 32852 ft | 476 kts | 144° |
| 2026-02-19 12:57 | 50.60961 | 14.88652 | 32855 ft | 476 kts | 144° |
| 2026-02-19 12:58 | 50.55810 | 14.95134 | 32857 ft | 479 kts | 144° |
| 2026-02-19 12:58 | 50.50620 | 15.01641 | 32864 ft | 480 kts | 144° |
| 2026-02-19 12:59 | 50.45521 | 15.08024 | 32861 ft | 478 kts | 144° |
| 2026-02-19 12:59 | 50.40766 | 15.13963 | 32856 ft | 479 kts | 144° |
| 2026-02-19 13:00 | 50.35266 | 15.20804 | 32847 ft | 480 kts | 144° |
| 2026-02-19 13:00 | 50.27459 | 15.30479 | 32844 ft | 480 kts | 145° |
| 2026-02-19 13:01 | 50.22262 | 15.36903 | 32860 ft | 482 kts | 145° |
| 2026-02-19 13:01 | 50.16992 | 15.43393 | 32855 ft | 479 kts | 145° |
| 2026-02-19 13:02 | 50.11833 | 15.49731 | 32858 ft | 480 kts | 145° |
| 2026-02-19 13:02 | 50.06586 | 15.56158 | 32861 ft | 480 kts | 145° |
| 2026-02-19 13:03 | 50.01368 | 15.62535 | 32862 ft | 478 kts | 145° |
| 2026-02-19 13:03 | 49.96234 | 15.68791 | 32864 ft | 478 kts | 146° |
| 2026-02-19 13:04 | 49.88555 | 15.78116 | 32853 ft | 478 kts | 146° |
| 2026-02-19 13:05 | 49.83323 | 15.84449 | 32859 ft | 477 kts | 146° |
| 2026-02-19 13:05 | 49.78140 | 15.90705 | 32859 ft | 478 kts | 146° |
| 2026-02-19 13:06 | 49.72963 | 15.96933 | 32801 ft | 478 kts | 146° |
| 2026-02-19 13:06 | 49.67743 | 16.03196 | 32770 ft | 477 kts | 146° |
| 2026-02-19 13:07 | 49.62548 | 16.09406 | 32766 ft | 477 kts | 146° |
| 2026-02-19 13:07 | 49.57387 | 16.15558 | 32769 ft | 478 kts | 146° |
| 2026-02-19 13:08 | 49.52167 | 16.21763 | 32772 ft | 478 kts | 146° |
| 2026-02-19 13:08 | 49.44374 | 16.30997 | 32774 ft | 478 kts | 146° |
| 2026-02-19 13:09 | 49.39107 | 16.37216 | 32796 ft | 479 kts | 146° |
| 2026-02-19 13:09 | 49.33870 | 16.43388 | 32812 ft | 480 kts | 146° |
| 2026-02-19 13:10 | 49.28619 | 16.49559 | 32819 ft | 480 kts | 146° |
| 2026-02-19 13:10 | 49.23430 | 16.55652 | 32821 ft | 479 kts | 146° |
| 2026-02-19 13:11 | 49.18244 | 16.61724 | 32837 ft | 480 kts | 146° |
| 2026-02-19 13:11 | 49.13290 | 16.67509 | 32835 ft | 480 kts | 147° |
| 2026-02-19 13:12 | 49.04538 | 16.77674 | 32829 ft | 480 kts | 147° |
| 2026-02-19 13:13 | 48.99342 | 16.83685 | 32856 ft | 478 kts | 147° |
| 2026-02-19 13:13 | 48.95594 | 16.88008 | 32831 ft | 479 kts | 147° |
| 2026-02-19 13:14 | 48.90294 | 16.94113 | 32850 ft | 479 kts | 148° |
| 2026-02-19 13:14 | 48.84766 | 17.00458 | 32792 ft | 479 kts | 148° |
| 2026-02-19 13:15 | 48.79536 | 17.06439 | 32821 ft | 479 kts | 148° |
| 2026-02-19 13:15 | 48.74208 | 17.12393 | 32780 ft | 478 kts | 150° |
| 2026-02-19 13:16 | 48.68870 | 17.18083 | 32782 ft | 479 kts | 150° |
| 2026-02-19 13:16 | 48.60859 | 17.26507 | 32835 ft | 478 kts | 150° |
| 2026-02-19 13:17 | 48.55447 | 17.32208 | 32793 ft | 477 kts | 150° |
| 2026-02-19 13:17 | 48.50388 | 17.37555 | 32824 ft | 477 kts | 151° |
| 2026-02-19 13:18 | 48.44888 | 17.43361 | 32801 ft | 479 kts | 150° |
| 2026-02-19 13:18 | 48.43425 | 17.44902 | 32808 ft | 478 kts | 151° |
| 2026-02-19 13:19 | 48.33221 | 17.55626 | 32798 ft | 478 kts | 151° |
| 2026-02-19 13:19 | 47.99060 | 17.91165 | 32772 ft | 476 kts | 153° |
| 2026-02-19 13:20 | 47.77529 | 18.13221 | 32876 ft | 475 kts | 154° |
| 2026-02-19 13:20 | 47.34532 | 18.56565 | 32722 ft | 476 kts | 154° |
| 2026-02-19 13:20 | 47.12516 | 18.78481 | 32843 ft | 477 kts | 155° |
| 2026-02-19 13:21 | 46.91511 | 18.99170 | 32801 ft | 478 kts | 155° |
| 2026-02-19 13:21 | 46.46915 | 19.42450 | 32865 ft | 481 kts | 155° |
| 2026-02-19 13:21 | 46.26248 | 19.62211 | 32699 ft | 484 kts | 155° |
| 2026-02-19 13:22 | 46.02967 | 19.84458 | 32772 ft | 483 kts | 154° |
| 2026-02-19 13:22 | 45.81423 | 20.06502 | 32907 ft | 487 kts | 152° |
| 2026-02-19 13:22 | 45.60166 | 20.29483 | 32727 ft | 490 kts | 151° |
| 2026-02-19 13:22 | 45.39516 | 20.50966 | 32878 ft | 486 kts | 153° |
| 2026-02-19 13:23 | 45.17600 | 20.72035 | 32906 ft | 488 kts | 155° |
| 2026-02-19 13:23 | 44.73458 | 21.14227 | 32953 ft | 489 kts | 152° |
| 2026-02-19 13:24 | 44.29471 | 21.57830 | 32923 ft | 496 kts | 153° |
| 2026-02-19 13:25 | 43.40263 | 22.40561 | 32953 ft | 497 kts | 152° |
| 2026-02-19 13:25 | 42.95157 | 22.81837 | 32975 ft | 500 kts | 153° |
| 2026-02-19 13:26 | 42.50136 | 23.23604 | 33070 ft | 504 kts | 149° |
| 2026-02-19 13:26 | 42.28393 | 23.45110 | 32968 ft | 503 kts | 149° |
| 2026-02-19 13:26 | 42.06220 | 23.65995 | 32849 ft | 501 kts | 151° |
| 2026-02-19 13:26 | 42.03353 | 23.68526 | 32978 ft | 501 kts | 153° |
| 2026-02-19 13:27 | 42.00433 | 23.71038 | 32967 ft | 501 kts | 153° |
| 2026-02-19 13:27 | 41.94629 | 23.76045 | 32983 ft | 501 kts | 152° |
| 2026-02-19 13:28 | 41.88926 | 23.81072 | 32984 ft | 502 kts | 152° |
| 2026-02-19 13:28 | 41.80167 | 23.88965 | 32992 ft | 502 kts | 150° |
| 2026-02-19 13:29 | 41.74425 | 23.94186 | 33011 ft | 504 kts | 150° |
| 2026-02-19 13:29 | 41.68648 | 23.99439 | 32991 ft | 500 kts | 150° |
| 2026-02-19 13:30 | 41.62893 | 24.04660 | 33016 ft | 503 kts | 150° |
| 2026-02-19 13:30 | 41.57117 | 24.09808 | 33022 ft | 500 kts | 153° |
| 2026-02-19 13:31 | 41.51046 | 24.14110 | 33021 ft | 496 kts | 160° |
| 2026-02-19 13:31 | 41.44799 | 24.18003 | 33029 ft | 494 kts | 160° |
| 2026-02-19 13:32 | 41.35499 | 24.23844 | 33043 ft | 495 kts | 159° |
| 2026-02-19 13:33 | 41.29293 | 24.27864 | 33033 ft | 494 kts | 159° |
| 2026-02-19 13:33 | 41.23125 | 24.31912 | 33077 ft | 496 kts | 158° |
| 2026-02-19 13:34 | 41.16941 | 24.35994 | 33084 ft | 495 kts | 158° |
| 2026-02-19 13:34 | 41.10741 | 24.40086 | 33103 ft | 494 kts | 158° |
| 2026-02-19 13:35 | 41.04558 | 24.44159 | 33152 ft | 495 kts | 158° |
| 2026-02-19 13:35 | 40.98390 | 24.48211 | 33160 ft | 495 kts | 158° |
| 2026-02-19 13:36 | 40.92202 | 24.52268 | 33160 ft | 495 kts | 158° |
| 2026-02-19 13:36 | 40.82846 | 24.58385 | 33161 ft | 495 kts | 158° |
| 2026-02-19 13:37 | 40.76695 | 24.62394 | 33158 ft | 494 kts | 158° |
| 2026-02-19 13:37 | 40.31970 | 24.91298 | 33103 ft | 493 kts | 158° |
| 2026-02-19 13:38 | 39.82677 | 25.22680 | 33149 ft | 489 kts | 158° |
| 2026-02-19 13:38 | 39.61363 | 25.36074 | 33109 ft | 490 kts | 157° |
| 2026-02-19 13:39 | 39.55274 | 25.39886 | 33118 ft | 489 kts | 157° |
| 2026-02-19 13:39 | 39.49147 | 25.43716 | 33127 ft | 489 kts | 158° |
| 2026-02-19 13:40 | 39.39973 | 25.49435 | 33125 ft | 489 kts | 157° |
| 2026-02-19 13:41 | 39.33871 | 25.53230 | 33134 ft | 490 kts | 157° |
| 2026-02-19 13:41 | 39.27764 | 25.57020 | 33124 ft | 489 kts | 157° |
| 2026-02-19 13:42 | 39.21619 | 25.60828 | 33139 ft | 490 kts | 157° |
| 2026-02-19 13:42 | 39.15511 | 25.64604 | 33139 ft | 488 kts | 157° |
| 2026-02-19 13:43 | 39.09427 | 25.68359 | 33147 ft | 488 kts | 158° |
| 2026-02-19 13:43 | 39.03312 | 25.72124 | 33132 ft | 487 kts | 158° |
| 2026-02-19 13:44 | 38.97162 | 25.75904 | 33143 ft | 488 kts | 158° |
| 2026-02-19 13:44 | 38.87984 | 25.81532 | 33149 ft | 486 kts | 158° |
| 2026-02-19 13:45 | 38.81916 | 25.85244 | 33148 ft | 487 kts | 158° |
| 2026-02-19 13:45 | 38.75791 | 25.88984 | 33145 ft | 487 kts | 158° |
| 2026-02-19 13:46 | 38.69711 | 25.92690 | 33161 ft | 485 kts | 158° |
| 2026-02-19 13:46 | 38.63663 | 25.96369 | 33137 ft | 487 kts | 158° |
| 2026-02-19 13:47 | 38.57571 | 26.00066 | 33184 ft | 486 kts | 158° |
| 2026-02-19 13:47 | 38.51458 | 26.03769 | 33180 ft | 484 kts | 157° |
| 2026-02-19 13:48 | 38.42368 | 26.09266 | 33214 ft | 484 kts | 157° |
| 2026-02-19 13:49 | 38.36261 | 26.12949 | 33204 ft | 483 kts | 157° |
| 2026-02-19 13:49 | 38.30197 | 26.16601 | 33207 ft | 485 kts | 157° |
| 2026-02-19 13:50 | 38.24171 | 26.20221 | 33197 ft | 482 kts | 157° |
| 2026-02-19 13:50 | 38.18110 | 26.23856 | 33214 ft | 484 kts | 157° |
| 2026-02-19 13:51 | 38.12046 | 26.27485 | 33170 ft | 481 kts | 157° |
| 2026-02-19 13:51 | 38.08011 | 26.29897 | 33173 ft | 481 kts | 157° |
| 2026-02-19 13:52 | 37.99935 | 26.34714 | 33166 ft | 481 kts | 157° |
| 2026-02-19 13:52 | 37.90889 | 26.40097 | 33164 ft | 479 kts | 157° |
| 2026-02-19 13:53 | 37.84825 | 26.43697 | 33195 ft | 481 kts | 157° |
| 2026-02-19 13:53 | 37.78779 | 26.47280 | 33180 ft | 481 kts | 157° |
| 2026-02-19 13:54 | 37.72748 | 26.50847 | 33182 ft | 482 kts | 157° |
| 2026-02-19 13:54 | 37.66720 | 26.54408 | 33182 ft | 480 kts | 157° |
| 2026-02-19 13:55 | 37.60643 | 26.57991 | 33216 ft | 482 kts | 158° |
| 2026-02-19 13:55 | 37.54586 | 26.61554 | 33192 ft | 480 kts | 157° |
| 2026-02-19 13:56 | 37.45537 | 26.66867 | 33207 ft | 481 kts | 158° |
| 2026-02-19 13:57 | 37.39515 | 26.70393 | 33190 ft | 482 kts | 158° |
| 2026-02-19 13:57 | 37.33437 | 26.73945 | 33180 ft | 482 kts | 158° |
| 2026-02-19 13:58 | 37.27397 | 26.77471 | 33189 ft | 483 kts | 159° |
| 2026-02-19 13:58 | 37.21316 | 26.81012 | 33195 ft | 479 kts | 158° |
| 2026-02-19 13:59 | 37.15231 | 26.84553 | 33183 ft | 482 kts | 158° |
| 2026-02-19 13:59 | 37.09085 | 26.88120 | 33195 ft | 482 kts | 159° |
| 2026-02-19 14:00 | 37.02981 | 26.91657 | 33186 ft | 482 kts | 159° |
| 2026-02-19 14:00 | 36.93894 | 26.96910 | 33229 ft | 483 kts | 159° |
| 2026-02-19 14:01 | 36.87792 | 27.00431 | 33203 ft | 481 kts | 159° |
| 2026-02-19 14:01 | 36.81706 | 27.03934 | 33209 ft | 481 kts | 159° |
| 2026-02-19 14:02 | 36.75646 | 27.07420 | 33201 ft | 484 kts | 159° |
| 2026-02-19 14:02 | 36.69541 | 27.10924 | 33198 ft | 480 kts | 159° |
| 2026-02-19 14:03 | 36.63469 | 27.14401 | 33192 ft | 482 kts | 159° |
| 2026-02-19 14:03 | 36.57376 | 27.17886 | 33207 ft | 484 kts | 159° |
| 2026-02-19 14:04 | 36.45188 | 27.24834 | 33199 ft | 485 kts | 160° |
| 2026-02-19 14:05 | 36.39078 | 27.28309 | 33175 ft | 483 kts | 160° |
| 2026-02-19 14:05 | 36.32949 | 27.31790 | 33182 ft | 484 kts | 160° |
| 2026-02-19 14:06 | 36.26844 | 27.35252 | 33172 ft | 485 kts | 160° |
| 2026-02-19 14:06 | 36.20701 | 27.38727 | 33175 ft | 483 kts | 160° |
| 2026-02-19 14:07 | 36.14599 | 27.42175 | 33185 ft | 485 kts | 160° |
| 2026-02-19 14:07 | 36.08460 | 27.45635 | 33170 ft | 484 kts | 161° |
| 2026-02-19 14:08 | 35.99241 | 27.50821 | 33189 ft | 485 kts | 161° |
| 2026-02-19 14:09 | 35.93133 | 27.54252 | 33186 ft | 486 kts | 161° |
| 2026-02-19 14:09 | 35.86963 | 27.57710 | 33193 ft | 485 kts | 161° |
| 2026-02-19 14:10 | 35.80801 | 27.61159 | 33180 ft | 486 kts | 161° |
| 2026-02-19 14:10 | 35.74671 | 27.64582 | 33187 ft | 487 kts | 161° |
| 2026-02-19 14:11 | 35.68537 | 27.68002 | 33204 ft | 487 kts | 161° |
| 2026-02-19 14:11 | 35.62366 | 27.71438 | 33192 ft | 486 kts | 162° |
| 2026-02-19 14:12 | 35.56341 | 27.74787 | 33183 ft | 486 kts | 162° |
| 2026-02-19 14:12 | 35.47137 | 27.79890 | 33203 ft | 487 kts | 162° |
| 2026-02-19 14:13 | 35.40970 | 27.83304 | 33188 ft | 487 kts | 162° |
| 2026-02-19 14:13 | 35.34840 | 27.86690 | 33195 ft | 487 kts | 162° |
| 2026-02-19 14:14 | 35.28636 | 27.90112 | 33219 ft | 488 kts | 162° |
| 2026-02-19 14:14 | 35.22486 | 27.93500 | 33196 ft | 486 kts | 162° |
| 2026-02-19 14:15 | 35.16349 | 27.96874 | 33196 ft | 485 kts | 162° |
| 2026-02-19 14:15 | 35.10261 | 28.00215 | 33207 ft | 487 kts | 162° |
| 2026-02-19 14:16 | 35.01056 | 28.05255 | 33210 ft | 488 kts | 162° |
| 2026-02-19 14:17 | 34.94856 | 28.08643 | 33214 ft | 488 kts | 162° |
| 2026-02-19 14:17 | 34.88642 | 28.12033 | 33222 ft | 488 kts | 162° |
| 2026-02-19 14:18 | 34.82450 | 28.15407 | 33216 ft | 488 kts | 162° |
| 2026-02-19 14:18 | 34.76253 | 28.18775 | 33213 ft | 489 kts | 162° |
| 2026-02-19 14:19 | 34.70036 | 28.22151 | 33198 ft | 488 kts | 162° |
| 2026-02-19 14:19 | 34.63863 | 28.25496 | 33222 ft | 488 kts | 162° |
| 2026-02-19 14:20 | 34.51442 | 28.32212 | 33213 ft | 489 kts | 162° |
| 2026-02-19 14:20 | 34.48214 | 28.33441 | 31412 ft | 501 kts | 180° |
| 2026-02-19 14:21 | 34.44819 | 28.33055 | 28982 ft | 498 kts | 201° |
| 2026-02-19 14:21 | 34.41652 | 28.31501 | 26862 ft | 501 kts | 211° |
| 2026-02-19 14:21 | 34.38686 | 28.29261 | 24248 ft | 510 kts | 219° |
| 2026-02-19 14:21 | 34.35995 | 28.26568 | 22001 ft | 514 kts | 224° |
| 2026-02-19 14:22 | 34.33351 | 28.23860 | 19754 ft | 520 kts | 218° |
| 2026-02-19 14:22 | 34.30312 | 28.21681 | 18798 ft | 496 kts | 206° |
| 2026-02-19 14:22 | 34.27239 | 28.20368 | 19410 ft | 458 kts | 197° |
| 2026-02-19 14:22 | 34.24179 | 28.19713 | 19425 ft | 441 kts | 188° |
| 2026-02-19 14:23 | 34.21187 | 28.19593 | 19294 ft | 426 kts | 180° |
| 2026-02-19 14:23 | 34.18354 | 28.20225 | 19207 ft | 425 kts | 163° |
| 2026-02-19 14:23 | 34.15733 | 28.21991 | 19222 ft | 434 kts | 142° |
| 2026-02-19 14:23 | 34.13695 | 28.24549 | 19210 ft | 436 kts | 129° |
| 2026-02-19 14:24 | 34.11937 | 28.27497 | 19212 ft | 436 kts | 125° |
| 2026-02-19 14:24 | 34.08736 | 28.33611 | 19205 ft | 437 kts | 122° |
| 2026-02-19 14:24 | 34.07171 | 28.36710 | 19205 ft | 437 kts | 122° |
| 2026-02-19 14:25 | 34.05608 | 28.39819 | 19203 ft | 436 kts | 122° |
| 2026-02-19 14:25 | 34.04073 | 28.42880 | 19199 ft | 436 kts | 122° |
| 2026-02-19 14:25 | 34.02515 | 28.45987 | 19204 ft | 437 kts | 122° |
| 2026-02-19 14:25 | 34.00953 | 28.49104 | 19206 ft | 437 kts | 122° |
| 2026-02-19 14:26 | 33.99390 | 28.52215 | 19199 ft | 437 kts | 122° |
| 2026-02-19 14:26 | 33.97805 | 28.55292 | 19202 ft | 438 kts | 124° |
| 2026-02-19 14:26 | 33.96046 | 28.58216 | 19206 ft | 436 kts | 130° |
| 2026-02-19 14:26 | 33.93987 | 28.60879 | 19203 ft | 435 kts | 138° |
| 2026-02-19 14:27 | 33.91682 | 28.63192 | 19203 ft | 434 kts | 144° |
| 2026-02-19 14:27 | 33.89236 | 28.65168 | 19205 ft | 431 kts | 151° |
| 2026-02-19 14:27 | 33.86686 | 28.66866 | 19200 ft | 429 kts | 155° |
| 2026-02-19 14:27 | 33.83994 | 28.68440 | 19201 ft | 429 kts | 158° |
| 2026-02-19 14:28 | 33.81305 | 28.69901 | 19193 ft | 427 kts | 159° |
| 2026-02-19 14:28 | 33.75918 | 28.72695 | 19193 ft | 429 kts | 159° |
| 2026-02-19 14:28 | 33.73197 | 28.74149 | 19193 ft | 430 kts | 157° |
| 2026-02-19 14:29 | 33.70619 | 28.75899 | 19197 ft | 433 kts | 148° |
| 2026-02-19 14:29 | 33.68240 | 28.78077 | 19193 ft | 433 kts | 142° |
| 2026-02-19 14:29 | 33.66000 | 28.80465 | 19188 ft | 434 kts | 139° |
| 2026-02-19 14:29 | 33.63854 | 28.82936 | 19196 ft | 435 kts | 137° |
| 2026-02-19 14:30 | 33.61733 | 28.85446 | 19197 ft | 434 kts | 137° |
| 2026-02-19 14:30 | 33.59603 | 28.87957 | 19185 ft | 435 kts | 137° |
| 2026-02-19 14:30 | 33.57433 | 28.90496 | 19194 ft | 436 kts | 138° |
| 2026-02-19 14:30 | 33.55286 | 28.92974 | 19200 ft | 435 kts | 138° |
| 2026-02-19 14:31 | 33.53142 | 28.95418 | 19203 ft | 435 kts | 138° |
| 2026-02-19 14:31 | 33.50950 | 28.97893 | 19210 ft | 435 kts | 139° |
| 2026-02-19 14:31 | 33.48750 | 29.00361 | 19200 ft | 435 kts | 139° |
| 2026-02-19 14:31 | 33.46580 | 29.02786 | 19203 ft | 434 kts | 139° |
| 2026-02-19 14:32 | 33.44384 | 29.05234 | 19198 ft | 435 kts | 139° |
| 2026-02-19 14:32 | 33.39951 | 29.10168 | 19198 ft | 435 kts | 139° |
| 2026-02-19 14:32 | 33.37737 | 29.12631 | 19202 ft | 436 kts | 139° |
| 2026-02-19 14:33 | 33.35545 | 29.15068 | 19203 ft | 436 kts | 139° |
| 2026-02-19 14:33 | 33.33326 | 29.17534 | 19200 ft | 437 kts | 139° |
| 2026-02-19 14:33 | 33.31100 | 29.20007 | 19207 ft | 437 kts | 139° |
| 2026-02-19 14:33 | 33.28907 | 29.22442 | 19195 ft | 437 kts | 139° |
| 2026-02-19 14:34 | 33.26667 | 29.24927 | 19211 ft | 437 kts | 139° |
| 2026-02-19 14:34 | 33.24450 | 29.27384 | 19213 ft | 438 kts | 139° |
| 2026-02-19 14:34 | 33.22249 | 29.29823 | 19215 ft | 437 kts | 139° |
| 2026-02-19 14:34 | 33.20030 | 29.32279 | 19215 ft | 436 kts | 139° |
| 2026-02-19 14:35 | 33.17827 | 29.34716 | 19208 ft | 436 kts | 139° |
| 2026-02-19 14:35 | 33.15586 | 29.37193 | 19204 ft | 436 kts | 139° |
| 2026-02-19 14:35 | 33.13363 | 29.39648 | 19218 ft | 437 kts | 139° |
| 2026-02-19 14:35 | 33.11143 | 29.42098 | 19216 ft | 436 kts | 139° |
| 2026-02-19 14:36 | 33.08931 | 29.44538 | 19205 ft | 437 kts | 139° |
| 2026-02-19 14:36 | 33.04458 | 29.49467 | 19217 ft | 438 kts | 139° |
| 2026-02-19 14:36 | 33.02210 | 29.51940 | 19216 ft | 437 kts | 139° |
| 2026-02-19 14:37 | 32.97801 | 29.56786 | 19212 ft | 437 kts | 139° |
| 2026-02-19 14:37 | 32.62484 | 29.95363 | 19196 ft | 439 kts | 140° |
| 2026-02-19 14:37 | 32.60240 | 29.97800 | 19214 ft | 438 kts | 140° |
| 2026-02-19 14:37 | 32.58012 | 30.00220 | 19217 ft | 439 kts | 140° |
| 2026-02-19 14:38 | 32.55742 | 30.02682 | 19211 ft | 439 kts | 140° |
| 2026-02-19 14:38 | 32.53497 | 30.05116 | 19213 ft | 439 kts | 140° |
| 2026-02-19 14:38 | 32.51237 | 30.07565 | 19214 ft | 439 kts | 140° |
| 2026-02-19 14:38 | 32.48967 | 30.10020 | 19216 ft | 439 kts | 140° |
| 2026-02-19 14:39 | 32.46711 | 30.12459 | 19213 ft | 438 kts | 140° |
| 2026-02-19 14:39 | 32.44453 | 30.14894 | 19214 ft | 440 kts | 140° |
| 2026-02-19 14:39 | 32.42173 | 30.17350 | 19215 ft | 439 kts | 140° |
| 2026-02-19 14:39 | 32.39904 | 30.19793 | 19215 ft | 439 kts | 140° |
| 2026-02-19 14:40 | 32.37640 | 30.22228 | 19214 ft | 438 kts | 140° |
| 2026-02-19 14:40 | 32.33117 | 30.27090 | 19214 ft | 439 kts | 140° |
| 2026-02-19 14:40 | 32.30835 | 30.29541 | 19215 ft | 439 kts | 140° |
| 2026-02-19 14:41 | 32.28561 | 30.31981 | 19213 ft | 439 kts | 140° |
| 2026-02-19 14:41 | 32.26300 | 30.34406 | 19214 ft | 438 kts | 140° |
| 2026-02-19 14:41 | 32.24042 | 30.36826 | 19214 ft | 438 kts | 140° |
| 2026-02-19 14:41 | 32.21784 | 30.39243 | 19213 ft | 439 kts | 140° |
| 2026-02-19 14:42 | 32.19526 | 30.41658 | 19215 ft | 440 kts | 140° |
| 2026-02-19 14:42 | 32.17239 | 30.44103 | 19213 ft | 439 kts | 140° |
| 2026-02-19 14:42 | 32.14964 | 30.46534 | 19214 ft | 439 kts | 140° |
| 2026-02-19 14:42 | 32.12681 | 30.48973 | 19216 ft | 439 kts | 140° |
| 2026-02-19 14:43 | 32.10405 | 30.51401 | 19215 ft | 440 kts | 140° |
| 2026-02-19 14:43 | 32.08125 | 30.53831 | 19210 ft | 441 kts | 140° |
| 2026-02-19 14:43 | 32.05871 | 30.56232 | 19215 ft | 440 kts | 140° |
| 2026-02-19 14:43 | 32.03583 | 30.58667 | 19208 ft | 440 kts | 140° |
| 2026-02-19 14:44 | 32.01320 | 30.61076 | 19216 ft | 439 kts | 140° |
| 2026-02-19 14:44 | 31.96781 | 30.65899 | 19213 ft | 439 kts | 140° |
| 2026-02-19 14:44 | 31.94487 | 30.68335 | 19211 ft | 440 kts | 140° |
| 2026-02-19 14:45 | 31.92235 | 30.70725 | 19214 ft | 439 kts | 140° |
| 2026-02-19 14:45 | 31.89969 | 30.73128 | 19209 ft | 440 kts | 140° |
| 2026-02-19 14:45 | 31.87700 | 30.75533 | 19212 ft | 439 kts | 140° |
| 2026-02-19 14:45 | 31.85437 | 30.77929 | 19206 ft | 441 kts | 140° |
| 2026-02-19 14:46 | 31.83164 | 30.80335 | 19217 ft | 440 kts | 140° |
| 2026-02-19 14:46 | 31.80875 | 30.82753 | 19203 ft | 441 kts | 140° |
| 2026-02-19 14:46 | 31.78594 | 30.85165 | 19208 ft | 441 kts | 140° |
| 2026-02-19 14:46 | 31.76308 | 30.87579 | 19208 ft | 440 kts | 140° |
| 2026-02-19 14:47 | 31.74052 | 30.89958 | 19214 ft | 440 kts | 140° |
| 2026-02-19 14:47 | 31.71761 | 30.92374 | 19216 ft | 440 kts | 140° |
| 2026-02-19 14:47 | 31.69494 | 30.94762 | 19201 ft | 440 kts | 140° |
| 2026-02-19 14:47 | 31.67219 | 30.97158 | 19199 ft | 439 kts | 140° |
| 2026-02-19 14:48 | 31.64964 | 30.99532 | 19193 ft | 439 kts | 140° |
| 2026-02-19 14:48 | 31.60424 | 31.04306 | 19201 ft | 439 kts | 140° |
| 2026-02-19 14:48 | 31.58160 | 31.06683 | 19194 ft | 440 kts | 140° |
| 2026-02-19 14:49 | 31.55839 | 31.09085 | 19196 ft | 439 kts | 142° |
| 2026-02-19 14:49 | 31.53394 | 31.11238 | 19186 ft | 437 kts | 150° |
| 2026-02-19 14:49 | 31.50716 | 31.12713 | 19198 ft | 433 kts | 165° |
| 2026-02-19 14:49 | 31.47798 | 31.13540 | 19197 ft | 429 kts | 172° |
| 2026-02-19 14:50 | 31.44925 | 31.14117 | 19194 ft | 429 kts | 174° |
| 2026-02-19 14:50 | 31.41943 | 31.14613 | 19191 ft | 428 kts | 176° |
| 2026-02-19 14:50 | 31.39015 | 31.14948 | 19118 ft | 427 kts | 179° |
| 2026-02-19 14:50 | 31.36039 | 31.15155 | 18863 ft | 425 kts | 180° |
| 2026-02-19 14:51 | 31.33116 | 31.15303 | 18443 ft | 421 kts | 181° |
| 2026-02-19 14:51 | 31.30195 | 31.15443 | 17999 ft | 415 kts | 181° |
| 2026-02-19 14:51 | 31.27332 | 31.15587 | 17604 ft | 413 kts | 180° |
| 2026-02-19 14:51 | 31.24484 | 31.15745 | 17189 ft | 405 kts | 180° |
| 2026-02-19 14:52 | 31.21695 | 31.15917 | 16780 ft | 393 kts | 179° |
| 2026-02-19 14:52 | 31.18135 | 31.16154 | 16269 ft | 379 kts | 179° |
| 2026-02-19 14:52 | 31.13860 | 31.16450 | 15643 ft | 363 kts | 179° |
| 2026-02-19 14:53 | 31.11363 | 31.16625 | 15243 ft | 355 kts | 179° |
| 2026-02-19 14:53 | 31.08944 | 31.16795 | 14846 ft | 347 kts | 179° |
| 2026-02-19 14:53 | 31.06544 | 31.16962 | 14463 ft | 340 kts | 179° |
| 2026-02-19 14:53 | 31.04198 | 31.17126 | 14081 ft | 333 kts | 179° |
| 2026-02-19 14:54 | 31.01933 | 31.17284 | 13759 ft | 325 kts | 179° |
| 2026-02-19 14:54 | 30.99736 | 31.17437 | 13450 ft | 317 kts | 179° |
| 2026-02-19 14:54 | 30.97560 | 31.17588 | 13113 ft | 311 kts | 179° |
| 2026-02-19 14:54 | 30.95425 | 31.17737 | 12793 ft | 305 kts | 179° |
| 2026-02-19 14:55 | 30.93324 | 31.17883 | 12509 ft | 297 kts | 179° |
| 2026-02-19 14:55 | 30.91274 | 31.18026 | 12252 ft | 291 kts | 179° |
| 2026-02-19 14:55 | 30.89283 | 31.18164 | 11985 ft | 285 kts | 179° |
| 2026-02-19 14:55 | 30.87319 | 31.18300 | 11718 ft | 281 kts | 179° |
| 2026-02-19 14:56 | 30.85377 | 31.18435 | 11442 ft | 280 kts | 179° |
| 2026-02-19 14:56 | 30.81445 | 31.18707 | 10907 ft | 279 kts | 178° |
| 2026-02-19 14:56 | 30.79513 | 31.18841 | 10637 ft | 278 kts | 178° |
| 2026-02-19 14:57 | 30.77568 | 31.18976 | 10355 ft | 277 kts | 178° |
| 2026-02-19 14:57 | 30.75651 | 31.19109 | 10077 ft | 276 kts | 178° |
| 2026-02-19 14:57 | 30.73731 | 31.19243 | 9817 ft | 275 kts | 178° |
| 2026-02-19 14:57 | 30.71810 | 31.19376 | 9543 ft | 273 kts | 178° |
| 2026-02-19 14:58 | 30.69910 | 31.19508 | 9294 ft | 270 kts | 177° |
| 2026-02-19 14:58 | 30.68062 | 31.19637 | 9055 ft | 268 kts | 177° |
| 2026-02-19 14:58 | 30.66194 | 31.19766 | 8826 ft | 267 kts | 177° |
| 2026-02-19 14:58 | 30.64349 | 31.19894 | 8583 ft | 267 kts | 177° |
| 2026-02-19 14:59 | 30.62504 | 31.20021 | 8315 ft | 263 kts | 176° |
| 2026-02-19 14:59 | 30.60682 | 31.20148 | 8073 ft | 259 kts | 176° |
| 2026-02-19 14:59 | 30.58909 | 31.20271 | 7830 ft | 255 kts | 176° |
| 2026-02-19 14:59 | 30.57130 | 31.20394 | 7584 ft | 251 kts | 176° |
| 2026-02-19 15:00 | 30.55393 | 31.20514 | 7340 ft | 248 kts | 175° |
| 2026-02-19 15:00 | 30.52001 | 31.20748 | 6836 ft | 243 kts | 175° |
| 2026-02-19 15:00 | 30.50302 | 31.20866 | 6578 ft | 241 kts | 175° |
| 2026-02-19 15:01 | 30.48657 | 31.20979 | 6326 ft | 239 kts | 175° |
| 2026-02-19 15:01 | 30.46975 | 31.21096 | 6085 ft | 238 kts | 175° |
| 2026-02-19 15:01 | 30.45338 | 31.21210 | 5845 ft | 237 kts | 175° |
| 2026-02-19 15:01 | 30.43691 | 31.21323 | 5591 ft | 235 kts | 175° |
| 2026-02-19 15:02 | 30.42068 | 31.21435 | 5347 ft | 234 kts | 175° |
| 2026-02-19 15:02 | 30.40422 | 31.21548 | 5101 ft | 233 kts | 175° |
| 2026-02-19 15:02 | 30.38816 | 31.21658 | 4853 ft | 233 kts | 175° |
| 2026-02-19 15:02 | 30.37212 | 31.21769 | 4605 ft | 232 kts | 175° |
| 2026-02-19 15:03 | 30.35594 | 31.21881 | 4358 ft | 231 kts | 175° |
| 2026-02-19 15:03 | 30.33987 | 31.21992 | 4108 ft | 231 kts | 175° |
| 2026-02-19 15:03 | 30.32382 | 31.22103 | 3866 ft | 230 kts | 175° |
| 2026-02-19 15:03 | 30.30775 | 31.22214 | 3625 ft | 230 kts | 175° |
| 2026-02-19 15:04 | 30.29207 | 31.22320 | 3383 ft | 229 kts | 175° |
| 2026-02-19 15:04 | 30.26010 | 31.22529 | 2890 ft | 228 kts | 175° |
| 2026-02-19 15:04 | 30.24444 | 31.22633 | 2708 ft | 224 kts | 175° |
| 2026-02-19 15:05 | 30.22908 | 31.22732 | 2699 ft | 215 kts | 175° |
| 2026-02-19 15:05 | 30.21432 | 31.22830 | 2694 ft | 215 kts | 175° |
| 2026-02-19 15:05 | 30.19936 | 31.22934 | 2696 ft | 216 kts | 175° |
| 2026-02-19 15:05 | 30.18444 | 31.23039 | 2694 ft | 213 kts | 175° |
| 2026-02-19 15:06 | 30.16955 | 31.23134 | 2701 ft | 213 kts | 176° |
| 2026-02-19 15:06 | 30.15566 | 31.23200 | 2703 ft | 185 kts | 177° |
| 2026-02-19 15:06 | 30.14337 | 31.23221 | 2697 ft | 174 kts | 178° |
| 2026-02-19 15:06 | 30.13169 | 31.23198 | 2691 ft | 163 kts | 181° |
| 2026-02-19 15:07 | 30.12046 | 31.23118 | 2702 ft | 160 kts | 184° |
| 2026-02-19 15:07 | 30.10938 | 31.22976 | 2703 ft | 162 kts | 187° |
| 2026-02-19 15:07 | 30.09839 | 31.22793 | 2694 ft | 159 kts | 184° |
| 2026-02-19 15:07 | 30.08790 | 31.23098 | 2716 ft | 156 kts | 146° |
| 2026-02-19 15:08 | 30.07818 | 31.23635 | 2703 ft | 157 kts | 160° |
| 2026-02-19 15:08 | 30.05631 | 31.23909 | 2705 ft | 159 kts | 175° |
| 2026-02-19 15:08 | 30.04548 | 31.23983 | 2709 ft | 158 kts | 175° |
| 2026-02-19 15:09 | 30.03448 | 31.24063 | 2707 ft | 157 kts | 174° |
| 2026-02-19 15:09 | 30.02345 | 31.24139 | 2708 ft | 157 kts | 175° |
| 2026-02-19 15:09 | 30.01261 | 31.24288 | 2703 ft | 157 kts | 160° |
| 2026-02-19 15:09 | 30.00376 | 31.24962 | 2707 ft | 150 kts | 128° |
| 2026-02-19 15:10 | 29.99794 | 31.25947 | 2700 ft | 147 kts | 111° |
| 2026-02-19 15:10 | 29.99529 | 31.27053 | 2699 ft | 140 kts | 87° |
| 2026-02-19 15:10 | 29.99738 | 31.28117 | 2704 ft | 136 kts | 62° |
| 2026-02-19 15:10 | 30.00192 | 31.29054 | 2696 ft | 135 kts | 54° |
| 2026-02-19 15:11 | 30.00735 | 31.29944 | 2695 ft | 133 kts | 49° |
| 2026-02-19 15:11 | 30.01326 | 31.30780 | 2693 ft | 133 kts | 47° |
| 2026-02-19 15:11 | 30.01928 | 31.31598 | 2682 ft | 135 kts | 47° |
| 2026-02-19 15:11 | 30.02544 | 31.32420 | 2545 ft | 135 kts | 46° |
| 2026-02-19 15:12 | 30.03156 | 31.33231 | 2330 ft | 132 kts | 46° |
| 2026-02-19 15:12 | 30.04359 | 31.34826 | 1981 ft | 132 kts | 46° |
| 2026-02-19 15:12 | 30.04967 | 31.35628 | 1810 ft | 132 kts | 46° |
| 2026-02-19 15:13 | 30.05574 | 31.36432 | 1630 ft | 131 kts | 47° |
| 2026-02-19 15:13 | 30.06163 | 31.37215 | 1454 ft | 131 kts | 46° |
| 2026-02-19 15:13 | 30.06751 | 31.37992 | 1292 ft | 131 kts | 46° |
| 2026-02-19 15:13 | 30.07359 | 31.38797 | 1108 ft | 130 kts | 46° |
| 2026-02-19 15:14 | 30.07950 | 31.39580 | 939 ft | 131 kts | 46° |
| 2026-02-19 15:14 | 30.08558 | 31.40367 | 768 ft | 131 kts | 45° |
| 2026-02-19 15:14 | 30.09154 | 31.41161 | 601 ft | 130 kts | 47° |
| 2026-02-19 15:14 | 30.09750 | 31.41955 | 429 ft | 124 kts | 46° |
| 2026-02-19 15:15 | 30.10251 | 31.42615 | 383 ft | 87 kts | 49° |
| 2026-02-19 15:15 | 30.10503 | 31.42952 | 383 ft | 24 kts | 49° |
| 2026-02-19 15:15 | 30.10627 | 31.43113 | 383 ft | 38 kts | 50° |
| 2026-02-19 15:15 | 30.10750 | 31.43276 | 383 ft | 22 kts | 49° |
| 2026-02-19 15:16 | 30.10851 | 31.43406 | 383 ft | 21 kts | 41° |
| 2026-02-19 15:16 | 30.11094 | 31.43568 | 383 ft | 19 kts | 25° |
| 2026-02-19 15:16 | 30.11198 | 31.43598 | 383 ft | 14 kts | 342° |
| 2026-02-19 15:17 | 30.11257 | 31.43516 | 383 ft | 14 kts | 258° |
| 2026-02-19 15:17 | 30.11256 | 31.43415 | 383 ft | 12 kts | 304° |
| 2026-02-19 15:17 | 30.11322 | 31.43349 | 383 ft | 12 kts | 320° |
| 2026-02-19 15:17 | 30.11389 | 31.43284 | 383 ft | 12 kts | 318° |
| 2026-02-19 15:18 | 30.11455 | 31.43216 | 383 ft | 12 kts | 318° |
| 2026-02-19 15:18 | 30.11522 | 31.43149 | 383 ft | 12 kts | 319° |
| 2026-02-19 15:18 | 30.11590 | 31.43082 | 383 ft | 13 kts | 319° |
| 2026-02-19 15:18 | 30.11659 | 31.43013 | 383 ft | 13 kts | 319° |
| 2026-02-19 15:19 | 30.11730 | 31.42942 | 383 ft | 13 kts | 319° |
| 2026-02-19 15:19 | 30.11802 | 31.42871 | 383 ft | 13 kts | 318° |
| 2026-02-19 15:19 | 30.11874 | 31.42799 | 383 ft | 13 kts | 319° |
| 2026-02-19 15:19 | 30.11947 | 31.42726 | 383 ft | 14 kts | 319° |
| 2026-02-19 15:20 | 30.12021 | 31.42653 | 383 ft | 14 kts | 319° |
| 2026-02-19 15:20 | 30.12174 | 31.42502 | 383 ft | 14 kts | 319° |
| 2026-02-19 15:20 | 30.12198 | 31.42401 | 383 ft | 13 kts | 249° |
| 2026-02-19 15:21 | 30.12141 | 31.42316 | 383 ft | 13 kts | 226° |
| 2026-02-19 15:21 | 30.12079 | 31.42235 | 383 ft | 13 kts | 230° |
| 2026-02-19 15:21 | 30.12017 | 31.42152 | 383 ft | 13 kts | 229° |
| 2026-02-19 15:21 | 30.11956 | 31.42070 | 383 ft | 13 kts | 229° |
| 2026-02-19 15:22 | 30.11829 | 31.41902 | 383 ft | 14 kts | 228° |
| 2026-02-19 15:22 | 30.11765 | 31.41817 | 383 ft | 14 kts | 230° |
| 2026-02-19 15:22 | 30.11701 | 31.41730 | 383 ft | 14 kts | 229° |
| 2026-02-19 15:23 | 30.11635 | 31.41644 | 383 ft | 14 kts | 229° |
| 2026-02-19 15:23 | 30.11570 | 31.41556 | 383 ft | 14 kts | 229° |
| 2026-02-19 15:23 | 30.11503 | 31.41466 | 383 ft | 14 kts | 229° |
| 2026-02-19 15:23 | 30.11435 | 31.41377 | 383 ft | 14 kts | 229° |
| 2026-02-19 15:24 | 30.11228 | 31.41101 | 383 ft | 15 kts | 229° |
| 2026-02-19 15:24 | 30.11158 | 31.41007 | 383 ft | 15 kts | 229° |
| 2026-02-19 15:25 | 30.11091 | 31.40919 | 383 ft | 11 kts | 229° |
| 2026-02-19 15:25 | 30.11066 | 31.40844 | 383 ft | 10 kts | 285° |
| 2026-02-19 15:25 | 30.11087 | 31.40778 | 383 ft | 9 kts | 270° |
| 2026-02-19 15:25 | 30.11059 | 31.40717 | 383 ft | 9 kts | 229° |
| 2026-02-19 15:26 | 30.11015 | 31.40661 | 383 ft | 9 kts | 228° |
| 2026-02-19 15:26 | 30.10972 | 31.40604 | 383 ft | 9 kts | 229° |
| 2026-02-19 15:26 | 30.10933 | 31.40551 | 383 ft | 11 kts | 232° |
| 2026-02-19 15:26 | 30.10918 | 31.40464 | 383 ft | 12 kts | 288° |
| 2026-02-19 15:27 | 30.10944 | 31.40378 | 383 ft | 12 kts | 287° |
| 2026-02-19 15:27 | 30.10969 | 31.40285 | 383 ft | 12 kts | 288° |
| 2026-02-19 15:27 | 30.10999 | 31.40225 | 383 ft | 7 kts | 330° |
| 2026-02-19 15:27 | 30.11046 | 31.40225 | 383 ft | 7 kts | 13° |
| 2026-02-19 15:28 | 30.11068 | 31.40232 | 383 ft | 0 kts | 15° |
| 2026-02-19 15:28 | 30.11083 | 31.40237 | 383 ft | 0 kts | 15° |
| 2026-02-19 15:28 | 30.11084 | 31.40237 | 383 ft | 0 kts | 15° |